Highland Park, NJ

9:19 PM EDT on March 27, 2015 (GMT -0400)
River Road | | Change Station
CLOSE
Current Station
Personal Weather Station
Location: Highland Park, NJ
Elevation: 46 ft
Nearby Weather Stations

Elev 46 ft 40.50 °N, 74.44 °W | Updated 5 seconds ago

Overcast
Overcast
41.7 °F
Feels Like 42 °F
N
0.7
Wind Variable Wind from NW
Gusts 1.6 mph

Today
High -- | Low -- °F
--% Chance of Precip.
Yesterday
High -- | Low -- °F
Precip. -- in
6:50 AM 7:16 PM
First Quarter, 57% visible
Pressure 29.82 in
Visibility 10.0 miles
Clouds Overcast 5000 ft
Windchill 42 °F
Dew Point 28 °F
Humidity 58%
Rainfall 0.20 in
Snow Depth Not available.
UV 0 out of 12
Pollen 5.90 out of 12
Air Quality Not available.
Flu Activity Not available.
METAR KLDJ 280115Z AUTO 35005KT 10SM OVC050 08/M02 A2982 RMK AO2 T00831019

More Conditions Fewer Conditions

Pressure 29.82 in
Visibility 10.0 miles
Clouds Overcast 5000 ft
Windchill 42 °F
Dew Point 28 °F
Humidity 58%
Rainfall 0.20 in
Snow Depth Not available.
UV 0 out of 12
Pollen 5.90 out of 12
Air Quality Not available.
Flu Activity Not available.
METAR KLDJ 280115Z AUTO 35005KT 10SM OVC050 08/M02 A2982 RMK AO2 T00831019

More Conditions Fewer Conditions

10-Day Weather Forecast

Almanac

Astronomy

Mar. 27, 2015 Rise Set
Actual Time
Civil Twilight
Nautical Twilight
Astronomical Twilight
Moon
Length of Visible Light
Length of Day
Tomorrow will be .
, % of the Moon is Illuminated

Today's Extremes

State Highs State Lows

Community

WunderPhotos

Upload Photos

1,808,905 photos uploaded!

WunderBlogs® & News

Nearby

Air Quality

  Air Quality AQ Index Pollutant
Not available.

Snow Depth

Station Depth Elevation

Earthquake Activity

City Distance Mag. Time & Date
Minimum magnitude displayed is 2.5.

Coastal Water Temperatures

Place Temperature

Stations

Nearby Weather Stations

Station Location Temp. Windchill Dew Point Humidity Wind Precip. Elev Updated Type